Time;durP1;ratioP1;P1;durP2;ratioP2;P2;SDS_P1;SDS_P2;PMS_P1;PMS_P2;Temp;Humidity;BMP_temperature;BMP_pressure;BME280_temperature;BME280_humidity;BME280_pressure;Samples;Min_cycle;Max_cycle;Signal;HPM_P1;HPM_P2
2022/02/17 00:01:33;;;;;;;1.00;1.00;;;23.80;35.60;;;;;;6130149;28;81209;-62
2022/02/17 00:04:33;;;;;;;1.10;1.00;;;23.80;35.50;;;;;;6131509;28;80365;-62
2022/02/17 00:07:34;;;;;;;1.48;1.00;;;23.80;35.60;;;;;;6128595;28;80811;-61
2022/02/17 00:10:35;;;;;;;1.00;1.00;;;23.80;35.60;;;;;;6114998;28;80405;-62
2022/02/17 00:13:36;;;;;;;1.20;1.05;;;23.80;35.50;;;;;;6101546;28;81431;-62
2022/02/17 00:16:36;;;;;;;1.20;1.10;;;23.80;35.70;;;;;;6110082;28;80894;-62
2022/02/17 00:19:38;;;;;;;0.90;0.90;;;23.80;35.70;;;;;;6129074;28;80463;-62
2022/02/17 00:22:38;;;;;;;1.00;1.00;;;23.80;35.80;;;;;;6121011;28;81781;-62
2022/02/17 00:25:39;;;;;;;0.90;0.90;;;23.80;35.90;;;;;;6125395;28;81515;-62
2022/02/17 00:28:40;;;;;;;0.85;0.82;;;23.70;35.90;;;;;;6109558;28;82339;-62
2022/02/17 00:31:40;;;;;;;1.42;1.00;;;23.80;36.20;;;;;;6129021;28;80237;-61
2022/02/17 00:34:41;;;;;;;0.98;0.88;;;23.70;36.50;;;;;;6112420;28;80846;-61
2022/02/17 00:37:41;;;;;;;2.95;1.05;;;23.80;36.30;;;;;;6112413;28;80632;-61
2022/02/17 00:40:42;;;;;;;1.50;1.25;;;23.70;36.20;;;;;;6129243;28;81460;-60
2022/02/17 00:43:42;;;;;;;1.00;0.90;;;23.70;36.30;;;;;;6114010;28;80851;-61
2022/02/17 00:46:44;;;;;;;0.80;0.80;;;23.80;36.20;;;;;;6111168;28;82438;-61
2022/02/17 00:49:44;;;;;;;1.02;0.93;;;23.70;36.20;;;;;;6121523;28;81683;-60
2022/02/17 00:52:45;;;;;;;0.88;0.88;;;23.70;36.20;;;;;;6102797;28;81482;-61
2022/02/17 00:55:45;;;;;;;1.08;0.98;;;23.70;36.20;;;;;;6104483;28;82568;-61
2022/02/17 00:58:47;;;;;;;1.17;1.00;;;23.70;36.30;;;;;;6108767;28;80591;-60
2022/02/17 01:01:57;;;;;;;0.85;0.85;;;23.80;36.20;;;;;;6107915;28;82705;-61
2022/02/17 01:04:58;;;;;;;0.93;0.88;;;23.80;36.40;;;;;;6110263;28;83386;-61
2022/02/17 01:08:00;;;;;;;2.13;0.90;;;23.80;36.50;;;;;;6111066;28;80864;-61
2022/02/17 01:11:00;;;;;;;1.20;1.08;;;23.80;36.60;;;;;;6109049;28;80364;-60
2022/02/17 01:14:01;;;;;;;1.98;0.90;;;23.80;36.40;;;;;;6114410;28;83742;-60
2022/02/17 01:17:01;;;;;;;1.23;1.00;;;23.80;36.70;;;;;;6111619;28;83229;-60
2022/02/17 01:20:06;;;;;;;0.98;0.93;;;23.80;36.60;;;;;;6125465;28;82328;-60
2022/02/17 01:23:08;;;;;;;1.25;0.93;;;23.80;36.50;;;;;;6132929;28;80195;-62
2022/02/17 01:26:09;;;;;;;1.17;1.02;;;23.80;36.50;;;;;;6127180;28;80557;-60
2022/02/17 01:29:20;;;;;;;0.70;0.70;;;23.80;36.50;;;;;;6117482;28;82820;-61
2022/02/17 01:32:21;;;;;;;1.42;1.00;;;23.80;36.70;;;;;;6116537;28;81584;-60
2022/02/17 01:35:22;;;;;;;1.67;1.20;;;23.80;36.60;;;;;;6111444;28;80757;-60
2022/02/17 01:38:37;;;;;;;1.05;0.82;;;23.80;36.70;;;;;;6110421;28;83681;-61
2022/02/17 01:41:38;;;;;;;4.05;1.13;;;23.70;36.90;;;;;;6116923;28;83248;-61
2022/02/17 01:44:48;;;;;;;1.95;0.82;;;23.70;36.80;;;;;;6126855;28;83038;-60
2022/02/17 01:47:49;;;;;;;0.85;0.80;;;23.70;36.80;;;;;;6099083;28;80982;-60
2022/02/17 01:50:57;;;;;;;1.38;1.02;;;23.80;36.80;;;;;;6125988;28;82125;-60
2022/02/17 01:53:58;;;;;;;0.90;0.70;;;23.80;36.80;;;;;;6127025;28;82203;-61
2022/02/17 01:56:59;;;;;;;0.98;0.88;;;23.70;36.90;;;;;;6121092;28;83131;-61
2022/02/17 01:59:59;;;;;;;1.05;0.90;;;23.70;37.00;;;;;;6112719;28;81539;-60
2022/02/17 02:03:15;;;;;;;0.70;0.70;;;23.70;37.00;;;;;;6119079;28;81258;-61
2022/02/17 02:06:45;;;;;;;1.02;0.93;;;23.80;37.00;;;;;;6116486;28;84295;-60
2022/02/17 02:09:46;;;;;;;0.73;0.73;;;23.70;37.20;;;;;;6118776;28;82795;-61
2022/02/17 02:12:48;;;;;;;0.70;0.70;;;23.70;37.30;;;;;;6116166;28;81693;-61
2022/02/17 02:16:00;;;;;;;1.20;0.95;;;23.70;37.50;;;;;;6111425;28;83191;-60
2022/02/17 02:19:01;;;;;;;1.05;0.90;;;23.70;37.40;;;;;;6127092;28;80429;-59
2022/02/17 02:22:03;;;;;;;1.20;0.70;;;23.60;37.40;;;;;;6110284;28;83283;-59
2022/02/17 02:25:04;;;;;;;0.80;0.75;;;23.70;37.60;;;;;;6113572;28;80564;-60
2022/02/17 02:28:06;;;;;;;0.88;0.80;;;23.70;37.80;;;;;;6114727;28;83297;-59
2022/02/17 02:31:06;;;;;;;0.60;0.60;;;23.70;37.70;;;;;;6108497;28;83231;-59
2022/02/17 02:34:07;;;;;;;1.33;0.90;;;23.70;37.60;;;;;;6096511;28;80687;-59
2022/02/17 02:37:08;;;;;;;0.80;0.80;;;23.70;37.60;;;;;;6093201;28;82813;-59
2022/02/17 02:40:09;;;;;;;0.60;0.60;;;23.60;37.60;;;;;;6122209;28;83346;-59
2022/02/17 02:43:11;;;;;;;0.82;0.82;;;23.60;37.90;;;;;;6116196;28;80313;-59
2022/02/17 02:46:12;;;;;;;1.00;0.90;;;23.60;37.80;;;;;;6129412;28;85807;-60
2022/02/17 02:49:14;;;;;;;0.77;0.77;;;23.70;38.00;;;;;;6112649;28;82678;-59
2022/02/17 02:52:15;;;;;;;0.80;0.80;;;23.70;38.00;;;;;;6123112;28;80581;-59
2022/02/17 02:55:19;;;;;;;0.70;0.70;;;23.70;37.90;;;;;;6100855;28;82215;-60
2022/02/17 02:58:20;;;;;;;0.60;0.60;;;23.70;38.10;;;;;;6127581;28;83075;-59
2022/02/17 03:01:24;;;;;;;0.70;0.70;;;23.60;38.00;;;;;;6113227;28;86878;-60
2022/02/17 03:04:25;;;;;;;0.80;0.80;;;23.70;38.10;;;;;;6098309;28;82014;-59
2022/02/17 03:07:26;;;;;;;1.20;0.80;;;23.70;37.90;;;;;;6104918;28;82266;-60
2022/02/17 03:10:30;;;;;;;3.20;0.80;;;23.70;38.00;;;;;;6108065;28;83611;-60
2022/02/17 03:13:31;;;;;;;0.80;0.70;;;23.70;37.90;;;;;;6126252;28;81747;-60
2022/02/17 03:16:32;;;;;;;0.65;0.65;;;23.70;38.10;;;;;;6125675;28;82698;-60
2022/02/17 03:19:33;;;;;;;1.00;0.88;;;23.70;38.00;;;;;;6126208;28;82415;-60
2022/02/17 03:22:33;;;;;;;1.58;0.73;;;23.70;38.20;;;;;;6107682;28;83602;-59
2022/02/17 03:25:35;;;;;;;0.80;0.80;;;23.70;38.30;;;;;;6124755;28;82901;-60
2022/02/17 03:28:41;;;;;;;0.73;0.73;;;23.70;38.30;;;;;;6102851;28;83150;-59
2022/02/17 03:31:43;;;;;;;0.65;0.65;;;23.70;38.20;;;;;;6112373;28;82925;-59
2022/02/17 03:34:45;;;;;;;0.60;0.60;;;23.60;38.50;;;;;;6118599;28;83294;-59
2022/02/17 03:37:51;;;;;;;1.10;0.90;;;23.60;38.50;;;;;;6130288;28;82355;-59
2022/02/17 03:40:54;;;;;;;0.70;0.70;;;23.60;38.50;;;;;;6106899;28;82771;-59
2022/02/17 03:43:58;;;;;;;0.82;0.80;;;23.60;38.70;;;;;;6123671;28;82427;-59
2022/02/17 03:47:03;;;;;;;1.10;0.70;;;23.60;38.90;;;;;;6128098;28;82989;-59
2022/02/17 03:50:26;;;;;;;0.80;0.80;;;23.60;38.90;;;;;;6116251;28;80534;-59
2022/02/17 03:53:38;;;;;;;0.90;0.90;;;23.60;39.00;;;;;;6130279;28;82151;-59
2022/02/17 03:56:39;;;;;;;0.75;0.75;;;23.60;39.00;;;;;;6129708;28;83332;-59
2022/02/17 03:59:56;;;;;;;;;;;23.60;39.20;;;;;;6118845;28;82858;-59
2022/02/17 04:02:56;;;;;;;1.15;0.90;;;23.60;39.30;;;;;;6117636;28;82745;-60
2022/02/17 04:05:59;;;;;;;1.83;0.80;;;23.60;39.30;;;;;;6112822;28;80780;-60
2022/02/17 04:08:59;;;;;;;0.98;0.98;;;23.60;39.50;;;;;;6128457;28;80409;-59
2022/02/17 04:12:01;;;;;;;0.70;0.70;;;23.60;39.50;;;;;;6114639;28;82750;-59
2022/02/17 04:15:09;;;;;;;1.10;0.70;;;23.60;39.50;;;;;;6113104;28;83453;-60
2022/02/17 04:18:11;;;;;;;0.50;0.50;;;23.60;39.80;;;;;;6127046;28;83342;-59
2022/02/17 04:21:15;;;;;;;0.68;0.68;;;23.60;39.60;;;;;;6125481;28;81742;-60
2022/02/17 04:24:45;;;;;;;1.58;0.75;;;23.60;39.50;;;;;;6100635;28;80443;-60
2022/02/17 04:27:48;;;;;;;1.05;0.80;;;23.70;39.50;;;;;;6119795;28;83256;-59
2022/02/17 04:30:49;;;;;;;0.88;0.70;;;23.70;39.50;;;;;;6124915;28;82317;-60
2022/02/17 04:33:50;;;;;;;0.95;0.63;;;23.70;39.40;;;;;;6115734;28;83490;-60
2022/02/17 04:36:59;;;;;;;0.98;0.60;;;23.70;39.40;;;;;;6111197;28;83160;-60
2022/02/17 04:40:00;;;;;;;0.93;0.70;;;23.70;39.60;;;;;;6123569;28;83409;-60
2022/02/17 04:43:04;;;;;;;0.95;0.70;;;23.80;39.50;;;;;;6128627;28;83267;-60
2022/02/17 04:46:05;;;;;;;1.75;0.70;;;23.80;39.40;;;;;;6127124;28;83262;-60
2022/02/17 04:49:05;;;;;;;0.70;0.70;;;23.80;39.30;;;;;;6126605;28;82930;-60
2022/02/17 04:52:06;;;;;;;1.27;0.70;;;23.90;39.20;;;;;;6120760;28;83684;-60
2022/02/17 04:55:07;;;;;;;0.60;0.60;;;23.90;39.10;;;;;;6128656;28;80615;-60
2022/02/17 04:58:07;;;;;;;0.80;0.70;;;23.90;38.90;;;;;;6112422;28;83226;-60
2022/02/17 05:01:08;;;;;;;0.70;0.70;;;23.90;39.00;;;;;;6107262;28;82270;-60
2022/02/17 05:04:47;;;;;;;1.52;0.70;;;23.90;39.10;;;;;;6099865;28;83782;-60
2022/02/17 05:07:54;;;;;;;0.90;0.80;;;23.90;39.00;;;;;;6090719;28;83564;-61
2022/02/17 05:10:56;;;;;;;2.85;0.60;;;23.90;39.10;;;;;;6126200;28;81653;-61
2022/02/17 05:13:57;;;;;;;0.60;0.60;;;23.90;39.40;;;;;;6129954;28;81551;-59
2022/02/17 05:16:57;;;;;;;2.40;0.80;;;23.90;39.40;;;;;;6102866;28;83265;-60
2022/02/17 05:20:01;;;;;;;3.60;1.00;;;23.90;40.00;;;;;;6109554;28;81579;-60
2022/02/17 05:23:30;;;;;;;2.03;0.68;;;24.00;39.70;;;;;;6124772;28;80715;-60
2022/02/17 05:26:54;;;;;;;0.68;0.60;;;24.00;40.30;;;;;;6101833;28;83678;-61
2022/02/17 05:30:08;;;;;;;;;;;24.00;40.20;;;;;;6104873;28;83143;-60
2022/02/17 05:33:15;;;;;;;0.60;0.60;;;24.00;40.20;;;;;;6110023;28;82456;-60
2022/02/17 05:36:33;;;;;;;0.90;0.60;;;24.10;40.00;;;;;;6114039;28;81585;-60
2022/02/17 05:39:41;;;;;;;1.23;0.68;;;24.00;40.40;;;;;;6109563;28;84181;-60
2022/02/17 05:42:52;;;;;;;0.60;0.60;;;24.10;40.80;;;;;;6104626;28;82298;-61
2022/02/17 05:45:52;;;;;;;0.60;0.60;;;24.00;40.80;;;;;;6099812;28;80642;-61
2022/02/17 05:48:53;;;;;;;0.60;0.60;;;24.00;41.10;;;;;;6117011;28;80517;-60
2022/02/17 05:51:53;;;;;;;1.05;0.80;;;24.00;41.80;;;;;;6109604;28;80310;-61
2022/02/17 05:54:54;;;;;;;0.68;0.68;;;24.00;41.60;;;;;;6100022;28;81100;-62
2022/02/17 05:57:54;;;;;;;2.55;0.60;;;24.00;41.80;;;;;;6114594;28;80555;-61
2022/02/17 06:00:57;;;;;;;0.65;0.65;;;24.00;42.10;;;;;;6104105;28;82797;-61
2022/02/17 06:03:57;;;;;;;0.70;0.70;;;24.00;42.00;;;;;;6104425;28;80676;-60
2022/02/17 06:06:58;;;;;;;0.63;0.60;;;24.00;42.70;;;;;;6109249;28;80444;-61
2022/02/17 06:09:58;;;;;;;0.65;0.60;;;24.00;44.20;;;;;;6128361;28;80861;-62
2022/02/17 06:12:59;;;;;;;0.73;0.70;;;23.90;45.20;;;;;;6107029;28;80726;-61
2022/02/17 06:15:59;;;;;;;0.50;0.50;;;23.90;45.90;;;;;;6108833;28;80351;-61
2022/02/17 06:19:00;;;;;;;1.75;0.77;;;23.90;46.10;;;;;;6120769;28;80132;-61
2022/02/17 06:22:01;;;;;;;0.57;0.57;;;23.90;46.50;;;;;;6098735;28;83033;-62
2022/02/17 06:25:02;;;;;;;0.60;0.60;;;23.90;46.70;;;;;;6115644;28;81898;-61
2022/02/17 06:28:03;;;;;;;2.10;0.50;;;23.90;46.70;;;;;;6118945;28;80878;-61
2022/02/17 06:31:04;;;;;;;0.70;0.70;;;23.90;46.80;;;;;;6111876;28;80806;-61
2022/02/17 06:34:04;;;;;;;0.68;0.68;;;23.80;47.20;;;;;;6099530;28;80260;-61
2022/02/17 06:37:05;;;;;;;0.73;0.73;;;23.90;47.00;;;;;;6107163;28;80751;-61
2022/02/17 06:40:05;;;;;;;1.58;0.90;;;23.90;47.20;;;;;;6099919;28;81643;-61
2022/02/17 06:43:06;;;;;;;0.80;0.80;;;23.80;47.20;;;;;;6107861;28;80705;-62
2022/02/17 06:46:07;;;;;;;0.70;0.70;;;23.80;48.00;;;;;;6109755;28;82807;-62
2022/02/17 06:49:08;;;;;;;0.88;0.80;;;23.80;47.40;;;;;;6114449;28;81425;-61
2022/02/17 06:52:08;;;;;;;1.90;0.80;;;23.80;47.50;;;;;;6103505;28;81031;-62
2022/02/17 06:55:12;;;;;;;0.70;0.70;;;23.80;47.60;;;;;;6108724;28;80570;-61
2022/02/17 06:58:13;;;;;;;0.60;0.60;;;23.80;48.00;;;;;;6111226;28;80598;-61
2022/02/17 07:01:14;;;;;;;0.60;0.60;;;23.80;48.10;;;;;;6108470;28;80988;-61
2022/02/17 07:04:14;;;;;;;1.13;0.88;;;23.80;48.30;;;;;;6097890;28;80732;-62
2022/02/17 07:07:15;;;;;;;1.35;0.88;;;23.80;47.50;;;;;;6119984;28;82156;-61
2022/02/17 07:10:54;;;;;;;5.40;1.00;;;23.90;47.20;;;;;;6107870;28;81984;-61
2022/02/17 07:13:36;;;;;;;0.75;0.75;;;23.80;46.60;;;;;;6106786;28;80531;-62
2022/02/17 07:16:36;;;;;;;0.68;0.68;;;23.80;46.20;;;;;;6130210;28;80567;-62
2022/02/17 07:19:37;;;;;;;3.17;1.00;;;23.80;45.90;;;;;;6097609;28;80695;-61
2022/02/17 07:22:37;;;;;;;0.75;0.73;;;23.80;45.70;;;;;;6128024;28;80749;-62
2022/02/17 07:25:38;;;;;;;1.27;0.70;;;23.80;46.00;;;;;;6101578;28;80344;-59
2022/02/17 07:28:38;;;;;;;1.67;0.98;;;23.80;45.60;;;;;;6126208;28;81707;-62
2022/02/17 07:31:39;;;;;;;3.38;1.48;;;23.60;46.10;;;;;;6116269;28;81717;-62
2022/02/17 07:34:39;;;;;;;8.52;1.10;;;23.50;46.20;;;;;;6109690;28;80590;-61
2022/02/17 07:37:40;;;;;;;6.70;1.10;;;23.40;45.90;;;;;;6097583;28;80736;-62
2022/02/17 07:40:43;;;;;;;4.25;0.88;;;23.30;46.20;;;;;;6105120;28;80946;-63
2022/02/17 07:43:44;;;;;;;7.95;1.10;;;23.30;46.40;;;;;;6111599;28;80467;-61
2022/02/17 07:46:46;;;;;;;2.65;1.00;;;23.30;46.20;;;;;;6116829;28;80563;-62
2022/02/17 07:49:46;;;;;;;4.47;1.10;;;23.30;46.30;;;;;;6095658;28;81368;-62
2022/02/17 07:52:47;;;;;;;0.80;0.80;;;23.30;46.50;;;;;;6103473;28;80465;-62
2022/02/17 07:55:47;;;;;;;3.20;1.20;;;23.30;46.50;;;;;;6124769;28;80527;-62
2022/02/17 07:58:49;;;;;;;3.85;0.80;;;23.20;46.40;;;;;;6112654;28;80570;-63
2022/02/17 08:01:49;;;;;;;1.92;1.08;;;23.30;46.50;;;;;;6126067;28;81002;-61
2022/02/17 08:04:50;;;;;;;6.70;0.98;;;23.20;46.30;;;;;;6129009;28;85867;-61
2022/02/17 08:07:50;;;;;;;0.73;0.70;;;23.20;47.20;;;;;;6112568;28;81781;-62
2022/02/17 08:10:51;;;;;;;1.42;0.80;;;23.20;47.30;;;;;;6092869;28;80642;-61
2022/02/17 08:13:53;;;;;;;1.17;0.90;;;23.10;47.40;;;;;;6102039;28;81820;-61
2022/02/17 08:16:53;;;;;;;4.10;0.98;;;23.10;47.70;;;;;;6103255;28;83422;-62
2022/02/17 08:19:54;;;;;;;11.02;1.63;;;23.10;47.70;;;;;;6108576;28;80377;-63
2022/02/17 08:22:54;;;;;;;1.98;1.00;;;23.10;48.00;;;;;;6112679;28;80576;-61
2022/02/17 08:25:55;;;;;;;1.98;1.10;;;23.10;48.40;;;;;;6107637;28;87846;-61
2022/02/17 08:28:58;;;;;;;4.47;1.52;;;23.30;47.70;;;;;;6109754;28;82075;-62
2022/02/17 08:31:59;;;;;;;4.78;1.30;;;23.40;47.20;;;;;;6107807;28;81356;-61
2022/02/17 08:34:59;;;;;;;1.33;1.08;;;23.50;46.70;;;;;;6101649;28;81676;-61
2022/02/17 08:38:00;;;;;;;7.38;1.15;;;23.50;46.60;;;;;;6101351;28;81981;-60
2022/02/17 08:41:01;;;;;;;3.83;1.20;;;23.60;46.70;;;;;;6098591;28;82006;-62
2022/02/17 08:44:02;;;;;;;10.23;1.95;;;23.60;46.50;;;;;;6093945;28;80786;-61
2022/02/17 08:47:02;;;;;;;1.45;0.85;;;23.70;46.50;;;;;;6100017;28;80403;-62
2022/02/17 08:50:03;;;;;;;1.10;0.80;;;23.70;46.30;;;;;;6096744;28;81270;-61
2022/02/17 08:53:03;;;;;;;2.63;0.68;;;23.70;46.30;;;;;;6098755;28;80507;-62
2022/02/17 08:56:03;;;;;;;3.45;1.08;;;23.70;46.20;;;;;;6109023;28;80660;-62
2022/02/17 08:59:04;;;;;;;1.27;0.70;;;23.70;46.20;;;;;;6111416;28;80632;-62
2022/02/17 09:02:05;;;;;;;5.25;0.80;;;23.80;46.40;;;;;;6108702;28;81554;-60
2022/02/17 09:05:05;;;;;;;1.92;0.90;;;23.80;46.20;;;;;;6108870;28;80736;-60
2022/02/17 09:08:06;;;;;;;2.50;1.20;;;23.80;46.30;;;;;;6107890;28;80433;-60
2022/02/17 09:11:06;;;;;;;6.53;1.58;;;23.80;46.40;;;;;;6119681;28;83692;-63
2022/02/17 09:14:09;;;;;;;4.38;1.67;;;23.80;46.90;;;;;;6104794;28;80582;-62
2022/02/17 09:17:09;;;;;;;8.45;1.60;;;23.80;47.00;;;;;;6108472;28;80305;-63
2022/02/17 09:20:11;;;;;;;6.32;1.65;;;23.80;47.30;;;;;;6098042;28;80621;-62
2022/02/17 09:23:11;;;;;;;3.03;1.70;;;23.80;47.00;;;;;;6102258;28;80373;-61
2022/02/17 09:26:12;;;;;;;4.60;1.50;;;23.80;47.00;;;;;;6110888;28;80440;-61
2022/02/17 09:29:13;;;;;;;5.97;2.10;;;23.80;47.00;;;;;;6099912;28;80392;-61
2022/02/17 09:32:13;;;;;;;4.15;1.65;;;23.80;47.00;;;;;;6120399;28;81219;-61
2022/02/17 09:35:13;;;;;;;4.43;1.77;;;23.80;47.00;;;;;;6113795;28;80657;-62
2022/02/17 09:38:15;;;;;;;8.85;1.95;;;23.80;46.70;;;;;;6111488;28;81272;-61
2022/02/17 09:41:18;;;;;;;6.32;1.73;;;23.80;46.60;;;;;;6101637;28;82657;-61
2022/02/17 09:44:18;;;;;;;4.90;1.85;;;23.80;46.40;;;;;;6111106;28;80615;-64
2022/02/17 09:47:19;;;;;;;4.82;1.67;;;23.80;46.10;;;;;;6113824;28;80569;-61
2022/02/17 09:50:19;;;;;;;6.15;1.98;;;23.80;45.90;;;;;;6121398;28;80268;-61
2022/02/17 09:53:20;;;;;;;4.25;1.98;;;23.80;45.70;;;;;;6101029;28;81549;-61
2022/02/17 09:56:22;;;;;;;4.35;1.90;;;23.80;45.60;;;;;;6112160;28;81369;-60
2022/02/17 09:59:23;;;;;;;4.32;1.70;;;23.80;45.60;;;;;;6125127;28;81197;-62
2022/02/17 10:02:26;;;;;;;2.25;1.45;;;23.80;45.40;;;;;;6106280;28;81424;-61
2022/02/17 10:05:26;;;;;;;4.05;2.05;;;23.70;45.20;;;;;;6126253;28;80718;-61
2022/02/17 10:08:27;;;;;;;4.38;1.42;;;23.70;45.30;;;;;;6113113;28;81596;-61
2022/02/17 10:11:27;;;;;;;4.60;1.80;;;23.80;44.90;;;;;;6125488;28;80476;-62
2022/02/17 10:14:28;;;;;;;9.45;2.10;;;23.70;45.00;;;;;;6095572;28;82215;-62
2022/02/17 10:17:29;;;;;;;3.85;1.55;;;23.70;45.20;;;;;;6107063;28;81516;-63
2022/02/17 10:20:29;;;;;;;2.72;1.70;;;23.80;45.00;;;;;;6099635;28;80828;-59
2022/02/17 10:23:30;;;;;;;2.90;1.40;;;23.70;44.70;;;;;;6103835;28;82145;-57
2022/02/17 10:26:31;;;;;;;4.82;1.90;;;23.70;44.10;;;;;;6102409;28;80479;-59
2022/02/17 10:29:31;;;;;;;2.45;1.45;;;23.70;44.00;;;;;;6108279;28;81435;-58
2022/02/17 10:32:32;;;;;;;4.18;1.55;;;23.70;44.40;;;;;;6120370;28;80974;-59
2022/02/17 10:35:32;;;;;;;6.78;1.90;;;23.70;44.10;;;;;;6127456;28;81515;-59
2022/02/17 10:38:33;;;;;;;2.97;1.55;;;23.70;44.30;;;;;;6124483;28;81611;-63
2022/02/17 10:41:33;;;;;;;2.75;1.58;;;23.70;44.10;;;;;;6123582;28;81667;-61
2022/02/17 10:44:34;;;;;;;2.55;1.58;;;23.70;43.80;;;;;;6121235;28;81100;-63
2022/02/17 10:47:34;;;;;;;2.80;1.70;;;23.70;44.20;;;;;;6130700;28;80543;-59
2022/02/17 10:50:38;;;;;;;2.95;1.40;;;23.60;44.30;;;;;;6115234;28;87197;-61
2022/02/17 10:53:40;;;;;;;4.15;1.67;;;23.60;44.50;;;;;;6114442;28;81030;-62
2022/02/17 10:56:41;;;;;;;13.90;2.10;;;23.70;44.50;;;;;;6103815;28;82198;-62
2022/02/17 11:03:01;;;;;;;6.28;1.73;;;23.70;44.70;;;;;;6110100;28;81391;-62
2022/02/17 11:06:01;;;;;;;1.98;1.52;;;23.70;44.80;;;;;;6105229;28;80557;-62
2022/02/17 11:09:02;;;;;;;2.47;1.83;;;23.70;44.90;;;;;;6112985;28;81667;-61
2022/02/17 11:12:02;;;;;;;2.40;1.45;;;23.70;44.50;;;;;;6107828;28;80583;-62
2022/02/17 11:15:05;;;;;;;2.38;1.60;;;23.70;44.60;;;;;;6115724;28;82009;-61
2022/02/17 11:18:05;;;;;;;2.08;1.50;;;23.70;44.50;;;;;;6121047;28;86336;-61
2022/02/17 11:21:06;;;;;;;2.65;1.73;;;23.70;44.60;;;;;;6110458;28;81555;-61
2022/02/17 11:24:06;;;;;;;2.78;1.88;;;23.70;44.90;;;;;;6117346;28;81289;-61
2022/02/17 11:27:07;;;;;;;2.58;1.50;;;23.80;44.80;;;;;;6113939;28;81193;-61
2022/02/17 11:30:08;;;;;;;2.85;1.60;;;23.80;45.00;;;;;;6114179;28;80945;-60
2022/02/17 11:33:08;;;;;;;3.30;1.73;;;23.80;45.10;;;;;;6115846;28;80379;-61
2022/02/17 11:36:09;;;;;;;2.70;1.80;;;23.70;45.10;;;;;;6123078;28;80449;-59
2022/02/17 11:39:10;;;;;;;4.35;1.75;;;23.80;45.40;;;;;;6113437;28;80373;-60
2022/02/17 11:42:11;;;;;;;3.63;1.80;;;23.70;45.40;;;;;;6108935;28;83609;-62
2022/02/17 11:45:11;;;;;;;2.38;1.80;;;23.70;45.70;;;;;;6096383;28;80774;-62
2022/02/17 11:48:12;;;;;;;3.75;1.85;;;23.70;45.70;;;;;;6109395;28;81942;-61
2022/02/17 11:51:14;;;;;;;2.63;1.77;;;23.80;46.00;;;;;;6131185;28;80522;-61
2022/02/17 11:54:15;;;;;;;5.20;1.60;;;23.90;46.90;;;;;;6115624;28;81487;-61
2022/02/17 11:57:16;;;;;;;3.08;1.80;;;23.90;46.20;;;;;;6098154;28;80532;-60
2022/02/17 12:00:17;;;;;;;5.10;1.90;;;23.90;45.60;;;;;;6125394;28;80444;-61
2022/02/17 12:03:17;;;;;;;2.45;1.90;;;23.90;46.00;;;;;;6107533;28;81883;-61
2022/02/17 12:06:18;;;;;;;2.45;2.17;;;23.90;46.70;;;;;;6120234;28;80579;-60
2022/02/17 12:09:18;;;;;;;4.47;1.75;;;23.90;46.00;;;;;;6108686;28;80248;-60
2022/02/17 12:12:19;;;;;;;4.70;1.83;;;23.90;45.70;;;;;;6128868;28;80531;-61
2022/02/17 12:15:20;;;;;;;3.33;1.80;;;24.00;45.50;;;;;;6115590;28;80882;-61
2022/02/17 12:18:20;;;;;;;2.72;1.90;;;23.90;46.00;;;;;;6128801;28;80462;-60
2022/02/17 12:21:21;;;;;;;3.13;1.92;;;23.90;46.00;;;;;;6128374;28;80482;-60
2022/02/17 12:24:22;;;;;;;3.30;2.05;;;23.80;46.20;;;;;;6122272;28;80467;-59
2022/02/17 12:27:22;;;;;;;4.32;2.10;;;23.90;46.20;;;;;;6111290;28;81763;-61
2022/02/17 12:30:23;;;;;;;2.90;2.00;;;24.00;45.70;;;;;;6110850;28;81257;-60
2022/02/17 12:33:24;;;;;;;2.92;2.05;;;24.10;45.50;;;;;;6112315;28;80683;-62
2022/02/17 12:36:24;;;;;;;2.72;2.03;;;24.20;44.30;;;;;;6108547;28;80366;-62
2022/02/17 12:39:31;;;;;;;2.50;1.63;;;24.30;43.60;;;;;;6107809;28;81886;-61
2022/02/17 12:42:31;;;;;;;2.75;1.60;;;24.30;43.20;;;;;;6111928;28;80525;-60
2022/02/17 12:45:32;;;;;;;2.67;1.75;;;24.30;43.20;;;;;;6107696;28;82629;-61
2022/02/17 12:48:33;;;;;;;2.20;1.50;;;24.30;43.00;;;;;;6115072;28;82453;-61
2022/02/17 12:51:33;;;;;;;2.63;1.88;;;24.30;43.00;;;;;;6112302;28;81498;-60
2022/02/17 12:54:34;;;;;;;4.47;1.85;;;24.40;42.80;;;;;;6111243;28;80611;-60
2022/02/17 12:57:35;;;;;;;4.25;1.92;;;24.40;42.40;;;;;;6103778;28;80773;-60
2022/02/17 13:00:36;;;;;;;3.17;1.98;;;24.40;42.40;;;;;;6103674;28;80392;-61
2022/02/17 13:03:37;;;;;;;2.70;1.83;;;24.50;43.20;;;;;;6097396;28;82591;-61
2022/02/17 13:06:37;;;;;;;10.23;1.77;;;24.30;44.00;;;;;;6109110;28;83048;-61
2022/02/17 13:09:38;;;;;;;2.70;1.58;;;24.40;44.30;;;;;;6106421;28;80594;-62
2022/02/17 13:12:38;;;;;;;3.83;1.83;;;24.40;44.80;;;;;;6107967;28;80756;-61
2022/02/17 13:15:39;;;;;;;3.08;2.05;;;24.50;45.00;;;;;;6106983;28;80657;-61
2022/02/17 13:18:40;;;;;;;3.08;1.70;;;24.50;44.90;;;;;;6119707;28;80616;-61
2022/02/17 13:21:41;;;;;;;3.22;1.52;;;24.50;45.10;;;;;;6121284;28;81636;-60
2022/02/17 13:24:42;;;;;;;2.60;1.58;;;24.50;45.10;;;;;;6117637;28;81798;-61
2022/02/17 13:27:45;;;;;;;3.47;1.77;;;24.50;45.20;;;;;;6102546;28;82463;-63
2022/02/17 13:30:46;;;;;;;7.40;1.60;;;24.40;45.30;;;;;;6095694;28;80682;-63
2022/02/17 13:33:47;;;;;;;3.50;1.77;;;24.40;45.50;;;;;;6097488;28;81786;-62
2022/02/17 13:36:48;;;;;;;3.92;1.95;;;24.40;45.60;;;;;;6109687;28;81687;-62
2022/02/17 13:39:48;;;;;;;7.18;2.05;;;24.40;45.40;;;;;;6106928;28;80645;-62
2022/02/17 13:42:49;;;;;;;7.65;1.67;;;24.40;45.30;;;;;;6099606;28;80635;-63
2022/02/17 13:45:49;;;;;;;3.30;1.88;;;24.50;45.30;;;;;;6099705;28;82987;-61
2022/02/17 13:48:50;;;;;;;3.35;1.80;;;24.60;44.80;;;;;;6121008;28;80454;-62
2022/02/17 13:51:51;;;;;;;5.82;2.17;;;24.60;44.80;;;;;;6112244;28;81000;-61
2022/02/17 13:54:52;;;;;;;5.90;2.00;;;24.60;44.70;;;;;;6099630;28;80995;-61
2022/02/17 13:57:53;;;;;;;3.03;1.80;;;24.60;44.70;;;;;;6097623;28;80568;-61
2022/02/17 14:00:54;;;;;;;3.28;1.70;;;24.60;44.60;;;;;;6095416;28;80454;-61
2022/02/17 14:03:55;;;;;;;3.65;1.77;;;24.70;44.60;;;;;;6097063;28;80954;-62
2022/02/17 14:06:56;;;;;;;3.53;2.33;;;24.80;44.50;;;;;;6097024;28;81582;-62
2022/02/17 14:09:56;;;;;;;2.67;1.83;;;24.80;44.10;;;;;;6091345;28;80681;-62
2022/02/17 14:12:57;;;;;;;3.70;2.03;;;24.80;44.50;;;;;;6097142;28;80363;-61
2022/02/17 14:15:57;;;;;;;2.22;1.65;;;24.80;44.30;;;;;;6098505;28;80937;-63
2022/02/17 14:18:58;;;;;;;2.28;1.60;;;24.70;44.10;;;;;;6103673;28;80719;-63
2022/02/17 14:21:59;;;;;;;3.15;1.63;;;24.70;44.30;;;;;;6096326;28;80631;-63
2022/02/17 14:24:59;;;;;;;4.88;1.80;;;24.70;44.20;;;;;;6099695;28;80618;-63
2022/02/17 14:28:00;;;;;;;5.30;2.50;;;24.60;44.40;;;;;;6097259;28;80971;-62
2022/02/17 14:31:00;;;;;;;4.18;2.08;;;24.70;44.40;;;;;;6100352;28;80652;-63
2022/02/17 14:34:01;;;;;;;3.50;1.70;;;24.70;44.20;;;;;;6096156;28;81366;-62
2022/02/17 14:37:01;;;;;;;2.70;1.90;;;24.80;44.00;;;;;;6099803;28;80568;-63
2022/02/17 14:40:02;;;;;;;3.13;1.85;;;24.90;44.00;;;;;;6101635;28;80818;-62
2022/02/17 14:43:03;;;;;;;4.03;2.15;;;24.80;43.90;;;;;;6092810;28;80446;-62
2022/02/17 14:46:03;;;;;;;2.65;1.70;;;24.80;44.00;;;;;;6106189;28;80566;-61
2022/02/17 14:49:04;;;;;;;4.28;2.00;;;24.70;44.10;;;;;;6098749;28;81380;-62
2022/02/17 14:52:04;;;;;;;3.38;2.20;;;24.70;44.10;;;;;;6117442;28;80404;-62
2022/02/17 14:55:05;;;;;;;4.50;2.15;;;24.60;44.40;;;;;;6123828;28;81045;-63
2022/02/17 14:58:06;;;;;;;5.82;1.98;;;24.60;44.40;;;;;;6098864;28;80442;-62
2022/02/17 15:01:07;;;;;;;3.50;2.22;;;24.50;44.50;;;;;;6108794;28;81775;-61
2022/02/17 15:04:07;;;;;;;2.60;2.00;;;24.50;44.40;;;;;;6109747;28;81244;-62
2022/02/17 15:07:08;;;;;;;6.68;2.90;;;24.50;44.70;;;;;;6106377;28;83202;-62
2022/02/17 15:10:08;;;;;;;6.68;2.00;;;24.40;44.60;;;;;;6104946;28;81188;-62
2022/02/17 15:13:09;;;;;;;2.92;1.83;;;24.40;44.80;;;;;;6100465;28;81601;-62
2022/02/17 15:16:11;;;;;;;3.83;1.98;;;24.40;45.10;;;;;;6114146;28;80824;-62
2022/02/17 15:19:12;;;;;;;5.22;2.35;;;24.30;45.10;;;;;;6098671;28;81657;-62
2022/02/17 15:22:12;;;;;;;3.47;1.90;;;24.30;45.10;;;;;;6116922;28;82350;-63
2022/02/17 15:25:13;;;;;;;3.45;1.80;;;24.30;45.10;;;;;;6097671;28;81226;-62
2022/02/17 15:28:16;;;;;;;5.68;1.85;;;24.30;45.10;;;;;;6104617;28;81703;-62
2022/02/17 15:31:18;;;;;;;5.43;2.17;;;24.30;45.30;;;;;;6118989;28;81184;-61
2022/02/17 15:34:18;;;;;;;3.78;2.30;;;24.30;45.30;;;;;;6120795;28;82720;-61
2022/02/17 15:37:19;;;;;;;3.67;2.13;;;24.30;45.30;;;;;;6109370;28;80653;-62
2022/02/17 15:40:19;;;;;;;4.03;2.20;;;24.30;45.30;;;;;;6113495;28;82160;-61
2022/02/17 15:43:20;;;;;;;4.22;2.22;;;24.30;45.40;;;;;;6098733;28;80739;-62
2022/02/17 15:46:21;;;;;;;6.75;2.20;;;24.30;45.60;;;;;;6117167;28;83574;-61
2022/02/17 15:49:23;;;;;;;2.85;2.03;;;24.20;45.90;;;;;;6106701;28;80417;-62
2022/02/17 15:52:24;;;;;;;7.07;2.03;;;24.20;46.40;;;;;;6111879;28;80897;-62